createdAt,value
2022-12-26T00:00:10.071Z,81.51
2022-12-26T00:01:09.651Z,81.60
2022-12-26T00:02:10.321Z,81.30
2022-12-26T00:03:09.659Z,81.30
2022-12-26T00:04:49.157Z,81.30
2022-12-26T00:05:10.973Z,81.51
2022-12-26T00:06:09.539Z,81.51
2022-12-26T00:07:09.516Z,81.51
2022-12-26T00:08:09.510Z,81.20
2022-12-26T00:09:09.513Z,81.10
2022-12-26T00:10:09.528Z,81.65
2022-12-26T00:11:09.571Z,81.60
2022-12-26T00:12:09.517Z,81.65
2022-12-26T00:13:38.109Z,81.51
2022-12-26T00:14:10.696Z,81.51
2022-12-26T00:15:09.433Z,81.20
2022-12-26T00:16:09.491Z,81.10
2022-12-26T00:17:09.505Z,80.90
2022-12-26T00:18:09.490Z,80.79
2022-12-26T00:19:09.474Z,81.20
2022-12-26T00:20:09.554Z,81.40
2022-12-26T00:21:09.444Z,81.51
2022-12-26T00:22:09.365Z,81.30
2022-12-26T00:23:09.678Z,80.99
2022-12-26T00:24:09.344Z,81.20
2022-12-26T00:25:09.359Z,81.10
2022-12-26T00:26:09.369Z,81.30
2022-12-26T00:27:09.449Z,81.20
2022-12-26T00:28:09.357Z,80.99
2022-12-26T00:29:09.537Z,80.99
2022-12-26T00:30:09.327Z,80.90
2022-12-26T00:31:09.646Z,81.30
2022-12-26T00:32:09.357Z,81.10
2022-12-26T00:33:09.734Z,81.30
2022-12-26T00:34:09.336Z,80.90
2022-12-26T00:35:09.276Z,80.79
2022-12-26T00:36:09.206Z,80.99
2022-12-26T00:37:09.412Z,80.79
2022-12-26T00:38:09.376Z,80.15
2022-12-26T00:39:09.411Z,80.49
2022-12-26T00:40:09.201Z,80.69
2022-12-26T00:41:09.130Z,80.45
2022-12-26T00:42:09.313Z,80.35
2022-12-26T00:43:09.103Z,80.24
2022-12-26T00:44:09.107Z,80.29
2022-12-26T00:45:09.204Z,80.59
2022-12-26T00:46:09.060Z,80.29
2022-12-26T00:47:09.123Z,80.69
2022-12-26T00:48:09.045Z,80.59
2022-12-26T00:49:09.038Z,80.90
2022-12-26T00:50:14.118Z,80.35
2022-12-26T00:51:10.021Z,80.04
2022-12-26T00:52:09.167Z,79.84
2022-12-26T00:53:09.393Z,79.53
2022-12-26T00:54:09.165Z,79.53
2022-12-26T00:55:08.958Z,79.74
2022-12-26T00:56:08.949Z,79.74
2022-12-26T00:57:08.996Z,79.84
2022-12-26T00:58:09.264Z,79.94
2022-12-26T00:59:08.944Z,80.38
2022-12-26T01:00:09.839Z,80.79
2022-12-26T01:01:09.006Z,80.69
2022-12-26T01:02:09.096Z,80.79
2022-12-26T01:03:09.002Z,80.29
2022-12-26T01:04:08.867Z,80.59
2022-12-26T01:05:08.897Z,80.15
2022-12-26T01:06:08.836Z,80.38
2022-12-26T01:07:08.842Z,80.29
2022-12-26T01:08:21.184Z,80.49
2022-12-26T01:09:09.805Z,80.38
2022-12-26T01:10:08.789Z,80.18
2022-12-26T01:11:08.837Z,80.59
2022-12-26T01:12:08.836Z,80.38
2022-12-26T01:13:08.769Z,80.38
2022-12-26T01:14:09.070Z,80.38
2022-12-26T01:15:08.743Z,80.38
2022-12-26T01:16:08.801Z,80.29
2022-12-26T01:17:08.747Z,80.35
2022-12-26T01:18:08.718Z,79.84
2022-12-26T01:19:08.735Z,79.98
2022-12-26T01:20:08.693Z,80.29
2022-12-26T01:21:08.763Z,80.08
2022-12-26T01:22:08.651Z,79.74
2022-12-26T01:23:08.821Z,79.43
2022-12-26T01:24:08.667Z,79.74
2022-12-26T01:25:08.981Z,79.98
2022-12-26T01:26:15.276Z,80.18
2022-12-26T01:27:11.154Z,80.15
2022-12-26T01:28:08.603Z,79.74
2022-12-26T01:29:09.113Z,79.74
2022-12-26T01:30:09.154Z,79.53
2022-12-26T01:31:09.189Z,79.84
2022-12-26T01:32:08.798Z,79.74
2022-12-26T01:33:10.024Z,79.88
2022-12-26T01:34:09.249Z,79.77
2022-12-26T01:35:08.557Z,79.98
2022-12-26T01:36:08.581Z,79.94
2022-12-26T01:37:08.665Z,79.77
2022-12-26T01:38:08.969Z,79.74
2022-12-26T01:39:09.241Z,79.98
2022-12-26T01:40:09.248Z,79.84
2022-12-26T01:41:09.208Z,79.98
2022-12-26T01:42:09.220Z,80.29
2022-12-26T01:43:09.219Z,79.74
2022-12-26T01:44:09.193Z,79.53
2022-12-26T01:45:09.543Z,79.33
2022-12-26T01:46:09.121Z,79.13
2022-12-26T01:47:09.173Z,79.13
2022-12-26T01:48:08.730Z,79.33
2022-12-26T01:49:09.111Z,79.13
2022-12-26T01:50:08.844Z,79.33
2022-12-26T01:51:09.090Z,79.23
2022-12-26T01:52:08.475Z,79.63
2022-12-26T01:53:09.078Z,79.33
2022-12-26T01:54:40.936Z,79.43
2022-12-26T01:55:09.813Z,78.82
2022-12-26T01:56:09.033Z,78.82
2022-12-26T01:57:08.309Z,78.78
2022-12-26T01:58:08.339Z,78.82
2022-12-26T01:59:08.303Z,78.72
2022-12-26T02:00:08.308Z,78.62
2022-12-26T02:01:08.425Z,78.62
2022-12-26T02:02:08.919Z,79.23
2022-12-26T02:03:08.342Z,79.13
2022-12-26T02:04:08.263Z,79.02
2022-12-26T02:05:08.269Z,79.47
2022-12-26T02:06:08.194Z,79.33
2022-12-26T02:07:08.201Z,79.13
2022-12-26T02:08:08.228Z,78.82
2022-12-26T02:09:08.171Z,78.58
2022-12-26T02:10:08.230Z,78.48
2022-12-26T02:11:08.217Z,78.68
2022-12-26T02:12:35.325Z,78.38
2022-12-26T02:13:09.139Z,78.38
2022-12-26T02:14:08.097Z,78.58
2022-12-26T02:15:08.126Z,78.28
2022-12-26T02:16:08.195Z,78.38
2022-12-26T02:17:08.132Z,78.28
2022-12-26T02:18:08.137Z,77.77
2022-12-26T02:19:08.060Z,77.77
2022-12-26T02:20:08.469Z,77.73
2022-12-26T02:21:08.190Z,77.53
2022-12-26T02:22:08.173Z,77.63
2022-12-26T02:23:08.192Z,77.33
2022-12-26T02:24:08.190Z,77.53
2022-12-26T02:25:08.100Z,77.67
2022-12-26T02:26:08.133Z,78.08
2022-12-26T02:27:08.124Z,77.97
2022-12-26T02:28:08.115Z,78.17
2022-12-26T02:29:07.951Z,78.17
2022-12-26T02:30:08.130Z,77.87
2022-12-26T02:31:08.143Z,77.97
2022-12-26T02:32:08.224Z,77.87
2022-12-26T02:33:08.159Z,77.83
2022-12-26T02:34:08.208Z,77.73
2022-12-26T02:35:08.179Z,77.77
2022-12-26T02:36:08.173Z,77.97
2022-12-26T02:37:08.085Z,77.73
2022-12-26T02:38:07.862Z,77.47
2022-12-26T02:39:44.572Z,77.87
2022-12-26T02:40:09.080Z,78.08
2022-12-26T02:41:08.303Z,78.48
2022-12-26T02:42:07.994Z,78.38
2022-12-26T02:43:07.969Z,78.38
2022-12-26T02:44:07.750Z,78.17
2022-12-26T02:45:07.751Z,78.08
2022-12-26T02:46:07.899Z,77.97
2022-12-26T02:47:08.062Z,77.73
2022-12-26T02:48:07.735Z,77.83
2022-12-26T02:49:07.683Z,77.77
2022-12-26T02:50:07.769Z,77.87
2022-12-26T02:51:07.674Z,78.17
2022-12-26T02:52:07.792Z,78.38
2022-12-26T02:53:07.705Z,78.17
2022-12-26T02:54:07.742Z,78.17
2022-12-26T02:55:07.674Z,77.87
2022-12-26T02:56:07.633Z,77.87
2022-12-26T02:57:07.638Z,77.53
2022-12-26T02:58:07.633Z,77.33
2022-12-26T02:59:07.640Z,77.97
2022-12-26T03:00:07.621Z,77.97
2022-12-26T03:01:07.712Z,78.58
2022-12-26T03:02:07.721Z,78.38
2022-12-26T03:03:07.690Z,78.41
2022-12-26T03:04:07.653Z,78.68
2022-12-26T03:05:07.672Z,78.72
2022-12-26T03:06:07.567Z,78.92
2022-12-26T03:07:07.775Z,78.62
2022-12-26T03:08:07.791Z,78.68
2022-12-26T03:09:07.805Z,78.62
2022-12-26T03:10:07.803Z,78.78
2022-12-26T03:11:07.665Z,78.17
2022-12-26T03:12:07.906Z,78.08
2022-12-26T03:13:07.946Z,77.97
2022-12-26T03:14:07.921Z,77.97
2022-12-26T03:15:07.730Z,78.08
2022-12-26T03:16:07.936Z,78.17
2022-12-26T03:17:07.791Z,78.17
2022-12-26T03:18:08.064Z,77.87
2022-12-26T03:19:08.071Z,77.87
2022-12-26T03:20:08.089Z,77.53
2022-12-26T03:21:08.087Z,77.67
2022-12-26T03:22:07.380Z,77.87
2022-12-26T03:23:07.421Z,77.97
2022-12-26T03:24:07.280Z,77.87
2022-12-26T03:25:07.422Z,77.73
2022-12-26T03:26:07.265Z,78.28
2022-12-26T03:27:07.523Z,78.28
2022-12-26T03:28:07.522Z,78.48
2022-12-26T03:29:07.240Z,78.28
2022-12-26T03:30:07.229Z,78.48
2022-12-26T03:31:07.391Z,78.28
2022-12-26T03:32:07.215Z,78.28
2022-12-26T03:33:07.245Z,77.97
2022-12-26T03:34:07.177Z,78.58
2022-12-26T03:35:07.285Z,78.62
2022-12-26T03:36:07.153Z,78.82
2022-12-26T03:37:07.134Z,79.13
2022-12-26T03:38:07.801Z,79.23
2022-12-26T03:39:07.143Z,79.13
2022-12-26T03:40:07.123Z,78.78
2022-12-26T03:41:07.855Z,79.23
2022-12-26T03:42:07.127Z,78.99
2022-12-26T03:43:07.728Z,78.68
2022-12-26T03:44:07.165Z,78.38
2022-12-26T03:45:07.095Z,78.38
2022-12-26T03:46:07.394Z,79.09
2022-12-26T03:47:07.748Z,78.82
2022-12-26T03:48:07.062Z,79.43
2022-12-26T03:49:07.053Z,79.53
2022-12-26T03:50:07.690Z,79.84
2022-12-26T03:51:07.005Z,79.74
2022-12-26T03:52:06.974Z,79.53
2022-12-26T03:53:06.996Z,79.43
2022-12-26T03:54:07.016Z,79.43
2022-12-26T03:55:07.004Z,79.33
2022-12-26T03:56:06.927Z,79.43
2022-12-26T03:57:07.027Z,79.77
2022-12-26T03:58:06.914Z,80.18
2022-12-26T03:59:07.193Z,80.08
2022-12-26T04:00:07.059Z,80.08
2022-12-26T04:01:07.248Z,80.38
2022-12-26T04:02:06.976Z,80.38
2022-12-26T04:03:07.190Z,80.18
2022-12-26T04:04:06.890Z,80.93
2022-12-26T04:05:07.179Z,80.93
2022-12-26T04:06:06.843Z,80.63
2022-12-26T04:07:06.835Z,80.93
2022-12-26T04:08:06.796Z,81.04
2022-12-26T04:09:06.784Z,80.69
2022-12-26T04:10:06.793Z,80.59
2022-12-26T04:11:07.244Z,80.73
2022-12-26T04:12:06.795Z,80.73
2022-12-26T04:13:06.758Z,80.73
2022-12-26T04:14:07.460Z,80.59
2022-12-26T04:15:06.737Z,80.52
2022-12-26T04:16:07.529Z,80.63
2022-12-26T04:17:06.729Z,80.93
2022-12-26T04:18:07.453Z,81.13
2022-12-26T04:19:06.761Z,81.27
2022-12-26T04:20:06.661Z,81.79
2022-12-26T04:21:07.181Z,81.88
2022-12-26T04:22:07.740Z,81.68
2022-12-26T04:23:07.204Z,81.58
2022-12-26T04:24:07.103Z,81.38
2022-12-26T04:25:07.215Z,81.79
2022-12-26T04:26:07.114Z,81.79
2022-12-26T04:27:06.708Z,81.99
2022-12-26T04:28:06.937Z,81.58
2022-12-26T04:29:07.316Z,82.09
2022-12-26T04:30:06.741Z,81.79
2022-12-26T04:31:07.315Z,81.79
2022-12-26T04:32:06.961Z,82.09
2022-12-26T04:33:06.757Z,82.43
2022-12-26T04:34:07.245Z,82.19
2022-12-26T04:35:06.506Z,82.19
2022-12-26T04:36:07.226Z,81.88
2022-12-26T04:37:07.239Z,81.99
2022-12-26T04:38:07.205Z,81.88
2022-12-26T04:39:07.184Z,81.48
2022-12-26T04:40:07.137Z,81.58
2022-12-26T04:41:07.165Z,81.48
2022-12-26T04:42:06.455Z,81.68
2022-12-26T04:43:49.977Z,81.48
2022-12-26T04:44:08.281Z,81.27
2022-12-26T04:45:06.374Z,81.48
2022-12-26T04:46:07.095Z,81.38
2022-12-26T04:47:06.394Z,81.27
2022-12-26T04:48:06.469Z,81.48
2022-12-26T04:49:06.420Z,81.38
2022-12-26T04:50:06.321Z,81.38
2022-12-26T04:51:06.341Z,81.48
2022-12-26T04:52:06.305Z,81.58
2022-12-26T04:53:06.422Z,81.79
2022-12-26T04:54:06.552Z,81.38
2022-12-26T04:55:06.412Z,81.48
2022-12-26T04:56:06.284Z,81.68
2022-12-26T04:57:06.248Z,82.13
2022-12-26T04:58:06.254Z,82.29
2022-12-26T04:59:06.251Z,81.88
2022-12-26T05:00:06.206Z,82.09
2022-12-26T05:01:06.311Z,81.68
2022-12-26T05:02:06.320Z,82.23
2022-12-26T05:03:06.348Z,82.43
2022-12-26T05:04:06.467Z,82.74
2022-12-26T05:05:06.810Z,82.09
2022-12-26T05:06:06.141Z,81.88
2022-12-26T05:07:06.830Z,81.38
2022-12-26T05:08:06.133Z,81.27
2022-12-26T05:09:06.141Z,81.82
2022-12-26T05:10:06.127Z,82.33
2022-12-26T05:11:06.873Z,81.88
2022-12-26T05:12:06.105Z,81.88
2022-12-26T05:13:06.242Z,81.79
2022-12-26T05:14:06.085Z,81.82
2022-12-26T05:15:06.079Z,82.09
2022-12-26T05:16:06.065Z,82.23
2022-12-26T05:17:06.012Z,82.43
2022-12-26T05:18:06.016Z,82.74
2022-12-26T05:19:06.004Z,82.19
2022-12-26T05:20:06.751Z,81.68
2022-12-26T05:21:06.729Z,81.68
2022-12-26T05:22:06.713Z,81.58
2022-12-26T05:23:06.707Z,81.27
2022-12-26T05:24:06.208Z,81.24
2022-12-26T05:25:05.945Z,81.04
2022-12-26T05:26:05.959Z,80.97
2022-12-26T05:27:06.264Z,81.48
2022-12-26T05:28:05.907Z,81.48
2022-12-26T05:29:05.911Z,81.79
2022-12-26T05:30:05.886Z,82.09
2022-12-26T05:31:05.933Z,81.79
2022-12-26T05:32:07.609Z,81.79
2022-12-26T05:33:06.189Z,81.88
2022-12-26T05:34:05.873Z,82.09
2022-12-26T05:35:06.188Z,82.19
2022-12-26T05:36:05.914Z,81.48
2022-12-26T05:37:06.538Z,81.34
2022-12-26T05:38:06.261Z,81.58
2022-12-26T05:39:05.778Z,81.88
2022-12-26T05:40:05.767Z,81.99
2022-12-26T05:41:05.737Z,81.68
2022-12-26T05:42:05.827Z,81.99
2022-12-26T05:43:05.900Z,82.19
2022-12-26T05:44:05.743Z,82.19
2022-12-26T05:45:05.965Z,81.99
2022-12-26T05:46:06.015Z,81.95
2022-12-26T05:47:06.068Z,81.79
2022-12-26T05:48:05.982Z,81.79
2022-12-26T05:49:06.136Z,82.19
2022-12-26T05:50:06.118Z,82.15
2022-12-26T05:51:05.667Z,81.65
2022-12-26T05:52:05.650Z,81.54
2022-12-26T05:53:06.063Z,80.99
2022-12-26T05:54:06.266Z,80.79
2022-12-26T05:55:06.128Z,80.99
2022-12-26T05:56:05.589Z,80.79
2022-12-26T05:57:05.604Z,80.69
2022-12-26T05:58:05.550Z,81.24
2022-12-26T05:59:05.578Z,81.20
2022-12-26T06:00:05.588Z,80.90
2022-12-26T06:01:05.606Z,80.79
2022-12-26T06:02:05.628Z,80.69
2022-12-26T06:03:05.592Z,80.69
2022-12-26T06:04:05.487Z,80.69
2022-12-26T06:05:05.475Z,80.59
2022-12-26T06:06:06.247Z,80.49
2022-12-26T06:07:05.507Z,80.49
2022-12-26T06:08:05.500Z,80.59
2022-12-26T06:09:05.437Z,80.99
2022-12-26T06:10:05.435Z,80.99
2022-12-26T06:11:05.534Z,80.99
2022-12-26T06:12:05.543Z,80.90
2022-12-26T06:13:05.421Z,80.35
2022-12-26T06:14:05.380Z,80.35
2022-12-26T06:15:05.366Z,80.59
2022-12-26T06:16:05.391Z,80.65
2022-12-26T06:17:05.351Z,80.55
2022-12-26T06:18:05.362Z,80.35
2022-12-26T06:19:05.325Z,80.35
2022-12-26T06:20:05.475Z,80.45
2022-12-26T06:21:05.331Z,80.35
2022-12-26T06:22:05.299Z,80.65
2022-12-26T06:23:05.316Z,80.15
2022-12-26T06:24:05.268Z,80.35
2022-12-26T06:25:05.279Z,80.55
2022-12-26T06:26:05.288Z,80.45
2022-12-26T06:27:05.537Z,80.35
2022-12-26T06:28:05.460Z,80.11
2022-12-26T06:29:05.562Z,79.84
2022-12-26T06:30:05.217Z,79.80
2022-12-26T06:31:05.278Z,79.90
2022-12-26T06:32:05.560Z,79.74
2022-12-26T06:33:05.207Z,80.55
2022-12-26T06:34:05.165Z,80.21
2022-12-26T06:35:05.517Z,80.21
2022-12-26T06:36:05.127Z,79.90
2022-12-26T06:37:06.598Z,80.21
2022-12-26T06:38:05.226Z,80.00
2022-12-26T06:39:05.121Z,80.00
2022-12-26T06:40:05.117Z,80.21
2022-12-26T06:41:05.094Z,80.24
2022-12-26T06:42:05.161Z,80.45
2022-12-26T06:43:05.088Z,80.24
2022-12-26T06:44:05.042Z,80.11
2022-12-26T06:45:05.049Z,80.11
2022-12-26T06:46:05.120Z,80.11
2022-12-26T06:47:05.124Z,79.50
2022-12-26T06:48:05.497Z,79.39
2022-12-26T06:49:04.992Z,79.19
2022-12-26T06:50:05.538Z,78.75
2022-12-26T06:51:04.973Z,78.85
2022-12-26T06:52:05.080Z,79.09
2022-12-26T06:53:04.941Z,79.39
2022-12-26T06:54:04.907Z,79.29
2022-12-26T06:55:04.897Z,79.70
2022-12-26T06:56:04.944Z,79.50
2022-12-26T06:57:04.869Z,79.39
2022-12-26T06:58:04.898Z,79.80
2022-12-26T06:59:04.879Z,80.11
2022-12-26T07:00:04.864Z,80.11
2022-12-26T07:01:04.969Z,80.00
2022-12-26T07:02:05.152Z,80.00
2022-12-26T07:03:04.882Z,80.31
2022-12-26T07:04:04.865Z,79.90
2022-12-26T07:05:04.802Z,79.80
2022-12-26T07:06:05.519Z,79.90
2022-12-26T07:07:04.768Z,80.41
2022-12-26T07:08:05.547Z,80.31
2022-12-26T07:09:04.758Z,80.41
2022-12-26T07:10:04.918Z,80.11
2022-12-26T07:11:04.737Z,80.62
2022-12-26T07:12:04.727Z,80.62
2022-12-26T07:13:04.709Z,80.41
2022-12-26T07:14:04.743Z,80.21
2022-12-26T07:15:04.714Z,80.51
2022-12-26T07:16:04.740Z,80.72
2022-12-26T07:17:04.679Z,80.51
2022-12-26T07:18:04.649Z,80.72
2022-12-26T07:19:04.687Z,80.72
2022-12-26T07:20:05.407Z,81.12
2022-12-26T07:21:04.649Z,81.37
2022-12-26T07:22:05.065Z,81.87
2022-12-26T07:23:04.741Z,82.38
2022-12-26T07:24:05.029Z,82.68
2022-12-26T07:25:05.132Z,83.09
2022-12-26T07:26:05.339Z,83.64
2022-12-26T07:27:04.568Z,84.25
2022-12-26T07:28:04.559Z,84.25
2022-12-26T07:29:04.538Z,84.15
2022-12-26T07:30:11.570Z,84.25
2022-12-26T07:31:04.503Z,84.15
2022-12-26T07:32:04.568Z,84.35
2022-12-26T07:33:04.463Z,84.25
2022-12-26T07:34:04.459Z,83.74
2022-12-26T07:35:04.444Z,83.44
2022-12-26T07:36:04.493Z,83.70
2022-12-26T07:37:04.410Z,83.84
2022-12-26T07:38:04.431Z,83.74
2022-12-26T07:39:04.411Z,83.54
2022-12-26T07:40:04.398Z,84.35
2022-12-26T07:41:04.377Z,83.74
2022-12-26T07:42:04.365Z,84.39
2022-12-26T07:43:04.361Z,85.00
2022-12-26T07:44:04.368Z,84.76
2022-12-26T07:45:04.318Z,84.59
2022-12-26T07:46:04.346Z,84.86
2022-12-26T07:47:04.321Z,84.90
2022-12-26T07:48:04.290Z,84.56
2022-12-26T07:49:04.293Z,84.45
2022-12-26T07:50:04.293Z,84.70
2022-12-26T07:51:04.251Z,84.70
2022-12-26T07:52:04.242Z,84.66
2022-12-26T07:53:04.233Z,84.25
2022-12-26T07:54:08.881Z,84.25
2022-12-26T07:55:05.230Z,84.29
2022-12-26T07:56:04.215Z,85.06
2022-12-26T07:57:38.016Z,84.66
2022-12-26T07:58:05.183Z,84.66
2022-12-26T07:59:04.163Z,85.00
2022-12-26T08:00:04.161Z,85.41
2022-12-26T08:01:04.439Z,84.86
2022-12-26T08:02:04.246Z,84.66
2022-12-26T08:03:07.702Z,84.66
2022-12-26T08:04:04.169Z,84.66
2022-12-26T08:05:04.103Z,84.45
2022-12-26T08:06:04.128Z,84.35
2022-12-26T08:07:04.111Z,84.52
2022-12-26T08:08:04.068Z,84.31
2022-12-26T08:09:04.050Z,84.56
2022-12-26T08:10:04.060Z,84.05
2022-12-26T08:11:04.043Z,83.74
2022-12-26T08:12:04.022Z,83.64
2022-12-26T08:13:04.026Z,83.20
2022-12-26T08:14:03.998Z,82.79
2022-12-26T08:15:04.017Z,82.79
2022-12-26T08:16:03.981Z,82.18
2022-12-26T08:17:04.016Z,80.76
2022-12-26T08:18:03.996Z,81.06
2022-12-26T08:19:03.956Z,80.85
2022-12-26T08:20:03.938Z,81.46
2022-12-26T08:21:03.914Z,81.33
2022-12-26T08:22:03.913Z,80.82
2022-12-26T08:23:03.895Z,80.76
2022-12-26T08:24:03.919Z,81.06
2022-12-26T08:25:03.872Z,81.46
2022-12-26T08:26:03.866Z,81.26
2022-12-26T08:27:03.857Z,81.30
2022-12-26T08:28:03.847Z,81.46
2022-12-26T08:29:03.857Z,81.30
2022-12-26T08:30:03.824Z,81.71
2022-12-26T08:31:03.815Z,81.51
2022-12-26T08:32:03.794Z,82.01
2022-12-26T08:33:03.781Z,81.87
2022-12-26T08:34:03.775Z,81.51
2022-12-26T08:35:03.782Z,82.12
2022-12-26T08:36:03.768Z,81.91
2022-12-26T08:37:03.731Z,82.52
2022-12-26T08:38:03.731Z,83.34
2022-12-26T08:39:03.723Z,83.64
2022-12-26T08:40:03.715Z,83.95
2022-12-26T08:41:03.720Z,84.76
2022-12-26T08:42:03.681Z,84.52
2022-12-26T08:43:22.057Z,84.52
2022-12-26T08:44:28.434Z,84.82
2022-12-26T08:45:04.641Z,85.23
2022-12-26T08:46:03.715Z,85.03
2022-12-26T08:47:03.659Z,85.78
2022-12-26T08:48:03.612Z,85.74
2022-12-26T08:49:03.606Z,85.74
2022-12-26T08:50:03.593Z,85.74
2022-12-26T08:51:03.583Z,86.19
2022-12-26T08:52:03.562Z,85.98
2022-12-26T08:53:03.584Z,85.98
2022-12-26T08:54:03.550Z,86.69
2022-12-26T08:55:03.543Z,86.90
2022-12-26T08:56:03.533Z,85.98
2022-12-26T08:57:03.511Z,86.69
2022-12-26T08:58:03.518Z,87.41
2022-12-26T08:59:03.520Z,86.90
2022-12-26T09:00:03.484Z,86.69
2022-12-26T09:01:03.523Z,86.04
2022-12-26T09:02:03.668Z,85.43
2022-12-26T09:03:03.480Z,84.92
2022-12-26T09:04:03.445Z,84.72
2022-12-26T09:05:03.453Z,85.13
2022-12-26T09:06:06.280Z,85.13
2022-12-26T09:07:03.405Z,85.03
2022-12-26T09:08:03.387Z,85.33
2022-12-26T09:09:03.384Z,85.64
2022-12-26T09:10:03.374Z,86.08
2022-12-26T09:11:03.391Z,86.04
2022-12-26T09:12:03.351Z,85.94
2022-12-26T09:13:03.344Z,85.33
2022-12-26T09:14:03.321Z,85.53
2022-12-26T09:15:03.312Z,86.29
2022-12-26T09:16:03.300Z,86.80
2022-12-26T09:17:03.347Z,87.00
2022-12-26T09:18:03.274Z,86.65
2022-12-26T09:19:03.260Z,86.04
2022-12-26T09:20:03.255Z,86.39
2022-12-26T09:21:03.247Z,86.90
2022-12-26T09:22:03.233Z,87.10
2022-12-26T09:23:03.243Z,87.41
2022-12-26T09:24:03.208Z,87.35
2022-12-26T09:25:03.198Z,87.51
2022-12-26T09:26:03.182Z,87.20
2022-12-26T09:27:03.214Z,86.59
2022-12-26T09:28:03.183Z,86.90
2022-12-26T09:29:03.206Z,86.45
2022-12-26T09:30:03.135Z,85.84
2022-12-26T09:31:03.199Z,86.15
2022-12-26T09:32:03.114Z,85.64
2022-12-26T09:33:03.117Z,85.53
2022-12-26T09:34:03.114Z,85.68
2022-12-26T09:35:03.086Z,85.94
2022-12-26T09:36:05.428Z,85.64
2022-12-26T09:37:03.062Z,85.47
2022-12-26T09:38:03.057Z,85.33
2022-12-26T09:39:03.082Z,85.64
2022-12-26T09:40:03.034Z,85.39
2022-12-26T09:41:03.024Z,84.38
2022-12-26T09:42:03.010Z,84.99
2022-12-26T09:43:03.004Z,84.48
2022-12-26T09:44:02.986Z,84.48
2022-12-26T09:45:02.993Z,84.68
2022-12-26T09:46:02.972Z,84.17
2022-12-26T09:47:02.960Z,84.48
2022-12-26T09:48:02.944Z,84.38
2022-12-26T09:49:02.936Z,85.03
2022-12-26T09:50:02.913Z,85.19
2022-12-26T09:51:02.934Z,84.82
2022-12-26T09:52:02.898Z,85.33
2022-12-26T09:53:02.897Z,85.74
2022-12-26T09:54:02.869Z,86.15
2022-12-26T09:55:02.921Z,86.19
2022-12-26T09:56:02.844Z,85.74
2022-12-26T09:57:04.587Z,84.92
2022-12-26T09:58:02.824Z,85.33
2022-12-26T09:59:02.823Z,85.03
2022-12-26T10:00:02.804Z,85.39
2022-12-26T10:01:02.797Z,85.13
2022-12-26T10:02:02.892Z,85.29
2022-12-26T10:03:02.774Z,85.09
2022-12-26T10:04:02.811Z,84.92
2022-12-26T10:05:02.867Z,85.53
2022-12-26T10:06:02.750Z,85.29
2022-12-26T10:07:02.724Z,85.09
2022-12-26T10:08:02.732Z,84.92
2022-12-26T10:09:02.704Z,85.19
2022-12-26T10:10:02.693Z,84.99
2022-12-26T10:11:02.724Z,84.48
2022-12-26T10:12:02.676Z,85.09
2022-12-26T10:13:02.655Z,84.88
2022-12-26T10:14:02.662Z,84.38
2022-12-26T10:15:02.633Z,84.78
2022-12-26T10:16:02.686Z,84.82
2022-12-26T10:17:02.616Z,85.33
2022-12-26T10:18:02.605Z,85.29
2022-12-26T10:19:02.586Z,85.39
2022-12-26T10:20:02.596Z,84.38
2022-12-26T10:21:02.565Z,84.48
2022-12-26T10:22:02.585Z,84.78
2022-12-26T10:23:02.571Z,84.99
2022-12-26T10:24:02.527Z,85.03
2022-12-26T10:25:02.528Z,85.64
2022-12-26T10:26:02.533Z,85.19
2022-12-26T10:27:02.511Z,85.29
2022-12-26T10:28:02.510Z,84.68
2022-12-26T10:29:02.516Z,84.34
2022-12-26T10:30:02.468Z,84.28
2022-12-26T10:31:02.540Z,84.68
2022-12-26T10:32:02.469Z,84.58
2022-12-26T10:33:02.446Z,84.88
2022-12-26T10:34:02.451Z,85.25
2022-12-26T10:35:02.405Z,84.44
2022-12-26T10:36:02.402Z,83.73
2022-12-26T10:37:02.389Z,84.23
2022-12-26T10:38:02.395Z,84.34
2022-12-26T10:39:02.365Z,84.38
2022-12-26T10:40:02.445Z,84.23
2022-12-26T10:41:02.344Z,84.13
2022-12-26T10:42:02.324Z,84.03
2022-12-26T10:43:02.317Z,84.03
2022-12-26T10:44:02.335Z,84.13
2022-12-26T10:45:02.308Z,83.83
2022-12-26T10:46:02.312Z,83.62
2022-12-26T10:47:02.289Z,83.69
2022-12-26T10:48:02.256Z,83.42
2022-12-26T10:49:02.259Z,82.78
2022-12-26T10:50:02.253Z,82.78
2022-12-26T10:51:02.253Z,82.67
2022-12-26T10:52:02.265Z,82.73
2022-12-26T10:53:02.258Z,82.67
2022-12-26T10:54:02.226Z,83.28
2022-12-26T10:55:28.766Z,83.18
2022-12-26T10:56:03.186Z,83.38
2022-12-26T10:57:02.157Z,83.83
2022-12-26T10:58:02.149Z,83.79
2022-12-26T10:59:02.149Z,83.28
2022-12-26T11:00:02.202Z,83.42
2022-12-26T11:01:02.158Z,84.09
2022-12-26T11:02:06.877Z,83.18
2022-12-26T11:03:03.163Z,83.48
2022-12-26T11:04:02.086Z,83.48
2022-12-26T11:05:33.308Z,84.07
2022-12-26T11:06:08.107Z,84.64
2022-12-26T11:07:03.088Z,84.74
2022-12-26T11:08:02.061Z,84.20
2022-12-26T11:09:02.039Z,83.69
2022-12-26T11:10:02.023Z,83.48
2022-12-26T11:11:02.022Z,83.89
2022-12-26T11:12:02.018Z,83.79
2022-12-26T11:13:02.001Z,83.08
2022-12-26T11:14:03.056Z,83.24
2022-12-26T11:15:01.971Z,82.84
2022-12-26T11:16:02.016Z,82.47
2022-12-26T11:17:01.941Z,83.48
2022-12-26T11:18:01.945Z,83.24
2022-12-26T11:19:01.953Z,82.94
2022-12-26T11:20:01.907Z,82.64
2022-12-26T11:21:01.890Z,82.23
2022-12-26T11:22:01.888Z,82.78
2022-12-26T11:23:01.879Z,83.28
2022-12-26T11:24:01.880Z,83.28
2022-12-26T11:25:01.858Z,83.53
2022-12-26T11:26:01.876Z,83.69
2022-12-26T11:27:01.830Z,83.38
2022-12-26T11:28:01.819Z,82.64
2022-12-26T11:29:01.841Z,82.03
2022-12-26T11:30:01.807Z,81.52
2022-12-26T11:31:01.860Z,82.06
2022-12-26T11:32:01.792Z,82.87
2022-12-26T11:33:01.761Z,82.64
2022-12-26T11:34:01.769Z,82.87
2022-12-26T11:35:01.842Z,82.12
2022-12-26T11:36:01.723Z,82.43
2022-12-26T11:37:01.710Z,82.23
2022-12-26T11:38:01.699Z,82.03
2022-12-26T11:39:01.704Z,82.23
2022-12-26T11:40:01.693Z,82.23
2022-12-26T11:41:01.712Z,82.03
2022-12-26T11:42:01.664Z,82.53
2022-12-26T11:43:01.652Z,81.82
2022-12-26T11:44:01.633Z,82.03
2022-12-26T11:45:01.624Z,81.58
2022-12-26T11:46:01.641Z,81.64
2022-12-26T11:47:01.642Z,80.57
2022-12-26T11:48:01.583Z,80.36
2022-12-26T11:49:01.584Z,81.07
2022-12-26T11:50:01.575Z,80.97
2022-12-26T11:51:01.557Z,80.66
2022-12-26T11:52:01.539Z,80.26
2022-12-26T11:53:01.563Z,80.53
2022-12-26T11:54:01.523Z,80.77
2022-12-26T11:55:01.560Z,81.18
2022-12-26T11:56:01.506Z,80.06
2022-12-26T11:57:01.487Z,79.41
2022-12-26T11:58:01.502Z,79.51
2022-12-26T11:59:01.619Z,79.11
2022-12-26T12:00:01.457Z,77.99
2022-12-26T12:01:01.437Z,77.79
2022-12-26T12:02:01.510Z,77.75
2022-12-26T12:03:01.511Z,77.25
2022-12-26T12:04:01.424Z,77.04
2022-12-26T12:05:01.406Z,77.21
2022-12-26T12:06:01.383Z,76.64
2022-12-26T12:07:01.381Z,75.89
2022-12-26T12:08:01.372Z,75.01
2022-12-26T12:09:05.793Z,74.30
2022-12-26T12:10:02.350Z,75.18
2022-12-26T12:11:01.346Z,75.99
2022-12-26T12:12:01.323Z,75.28
2022-12-26T12:13:01.354Z,74.07
2022-12-26T12:14:01.305Z,74.48
2022-12-26T12:15:01.315Z,73.56
2022-12-26T12:16:01.310Z,72.55
2022-12-26T12:17:01.268Z,72.31
2022-12-26T12:18:01.284Z,72.21
2022-12-26T12:19:01.254Z,73.05
2022-12-26T12:20:01.232Z,73.16
2022-12-26T12:21:01.238Z,70.93
2022-12-26T12:22:01.339Z,71.44
2022-12-26T12:23:01.235Z,74.27
2022-12-26T12:24:01.179Z,74.68
2022-12-26T12:25:01.202Z,72.17
2022-12-26T12:26:01.166Z,72.58
2022-12-26T12:27:05.019Z,73.46
2022-12-26T12:28:01.139Z,74.27
2022-12-26T12:29:01.183Z,74.61
2022-12-26T12:30:01.138Z,74.61
2022-12-26T12:31:01.138Z,74.07
2022-12-26T12:32:01.223Z,74.10
2022-12-26T12:33:01.102Z,72.99
2022-12-26T12:34:01.076Z,73.83
2022-12-26T12:35:01.062Z,73.60
2022-12-26T12:36:01.049Z,73.70
2022-12-26T12:37:01.041Z,74.30
2022-12-26T12:38:01.022Z,72.89
2022-12-26T12:39:01.033Z,73.39
2022-12-26T12:40:01.019Z,72.28
2022-12-26T12:41:01.048Z,72.38
2022-12-26T12:42:00.992Z,72.11
2022-12-26T12:43:00.991Z,72.58
2022-12-26T12:44:00.956Z,72.31
2022-12-26T12:45:00.993Z,73.12
2022-12-26T12:46:01.066Z,73.57
2022-12-26T12:47:00.934Z,74.38
2022-12-26T12:48:01.079Z,74.78
2022-12-26T12:49:00.902Z,74.48
2022-12-26T12:50:00.899Z,75.22
2022-12-26T12:51:00.903Z,75.52
2022-12-26T12:52:00.872Z,76.44